Main page
METAR-TAF:

METAR-TAF

Airports :

Bergerac Dordogne Périgord Airport

Bergerac, France

latitude: 44-49N, longitude: 000-31E, elevation: 51 m

Current weather observation

The report was made 36 minutes ago, at 08:30 UTC
Wind 3 kt from variable directions
Temperature 21°C
Humidity 73%
Pressure 1021 hPa
Visibility 10 km or more
no clouds below 1500 m and no cumulonimbus

METAR: LFBE 150830Z AUTO VRB03KT CAVOK 21/16 Q1021 NOSIG

Time: 11:06 (09:06 UTC)

Forecast

The report was made 4 hours and 6 minutes ago, at 05:00 UTC
Forecast valid from 15 at 06 UTC to 16 at 06 UTC
Wind 5 kt from the North/Northeast
Visibility 10 km or more
no clouds below 1500 m and no cumulonimbus
Probability 40%
from 15 at 06 UTC to 15 at 07 UTC
Visibility: 0800 m
patches of fog

TAF: LFBE 150500Z 1506/1606 02005KT CAVOK PROB40 1506/1507 0800 BCFG

Weather observations and forecasts of more than 4000 airports (METAR and TAF reports).

The available stations are represented by yellow and red dots on the map.

Hover mouse over dot to see the name of the station.

Then click to see weather observations and forecasts.

To change the map : click on the green buttons with a black cross to zoom in, on the green button with a dash to zoom out, or on the green arrows for adjacent maps.


METAR-TAF: